Archival Weather

Snohomish County (Paine Fld)

Everett, Washington (KPAE)

Report from: Wednesday, November 22, 2023 6:53 PM PST
Current time: Monday, June 17, 2024 12:06 AM PDT

Current weather – Weather history – Daily summaries
Weather forecast

Temperature5.6°C (42.1°F)
Wind chill4.0°C (39.2°F)
Dew point2.8°C (37.0°F)
Winds 4 kts (2.1 m/s, 4.6 mph) North-Northwest (340°)
Visibility10 mi. (16.1 km)
Clouds Sky clear
Altimeter30.39 in.Hg (1029 mB)
Relative humidity82 %
Density altitude-1,577 ft. (-481 m)
Sea-level pressure103.0 kPa (1030 mB, 30.40 in.Hg)
Remarks Automated weather observing station with precipitation discriminator
Pressure falling more slowly
Flight conditions Visual Meteorological Conditions
Raw dataKPAE 230253Z 34004KT 10SM CLR 06/03 A3039 RMK AO2 SLP296 T00560028 56001
An error has occurred. This application may no longer respond until reloaded. Reload 🗙